createdAt,value
2022-10-24T00:07:19.136Z,12.49
2022-10-24T00:16:56.806Z,12.58
2022-10-24T00:26:33.599Z,12.73
2022-10-24T00:36:11.862Z,12.75
2022-10-24T00:45:50.222Z,12.87
2022-10-24T00:55:25.641Z,12.54
2022-10-24T01:05:04.245Z,12.02
2022-10-24T01:14:39.762Z,11.73
2022-10-24T01:24:16.663Z,12.27
2022-10-24T01:33:56.021Z,12.4
2022-10-24T01:43:32.508Z,12.75
2022-10-24T01:53:11.458Z,12.84
2022-10-24T02:02:51.386Z,12.99
2022-10-24T02:12:26.405Z,13.07
2022-10-24T02:22:03.644Z,13.01
2022-10-24T02:31:42.486Z,13.08
2022-10-24T02:41:20.233Z,12.99
2022-10-24T02:50:58.748Z,13.54
2022-10-24T03:00:34.959Z,13.87
2022-10-24T03:10:15.776Z,13.73
2022-10-24T03:19:50.567Z,13.34
2022-10-24T03:29:27.646Z,13.18
2022-10-24T03:39:04.916Z,13.16
2022-10-24T03:48:42.000Z,13.09
2022-10-24T03:58:18.989Z,13.05
2022-10-24T04:07:56.673Z,13.11
2022-10-24T04:17:34.822Z,13.19
2022-10-24T04:27:13.183Z,13.16
2022-10-24T04:36:48.880Z,13.12
2022-10-24T04:46:26.172Z,13.14
2022-10-24T04:56:06.407Z,13.27
2022-10-24T05:05:41.677Z,13.36
2022-10-24T05:15:18.694Z,13.2
2022-10-24T05:24:56.439Z,13.15
2022-10-24T05:34:33.580Z,13.15
2022-10-24T05:44:14.148Z,13.18
2022-10-24T05:53:48.817Z,13.2
2022-10-24T06:03:27.995Z,13.28
2022-10-24T06:13:04.298Z,13.34
2022-10-24T06:22:41.856Z,13.43
2022-10-24T06:32:19.396Z,13.71
2022-10-24T06:41:58.996Z,13.95
2022-10-24T06:51:35.876Z,14.08
2022-10-24T07:01:12.512Z,14.03
2022-10-24T07:10:49.581Z,14.16
2022-10-24T07:20:28.546Z,14.36
2022-10-24T07:30:08.722Z,14.58
2022-10-24T07:39:44.511Z,14.67
2022-10-24T07:49:22.996Z,14.93
2022-10-24T07:59:01.063Z,15.66
2022-10-24T08:08:40.943Z,16
2022-10-24T08:18:19.005Z,16.27
2022-10-24T08:27:55.776Z,16.47
2022-10-24T08:37:34.158Z,16.01
2022-10-24T08:47:09.798Z,16.12
2022-10-24T09:06:24.813Z,16.51
2022-10-24T09:16:04.430Z,16.76
2022-10-24T09:25:40.760Z,16.83
2022-10-24T09:35:20.985Z,17.08
2022-10-24T09:44:56.782Z,16.95
2022-10-24T09:54:34.001Z,16.97
2022-10-24T10:04:14.097Z,17.18
2022-10-24T10:13:49.931Z,17.13
2022-10-24T10:23:27.791Z,17.26
2022-10-24T10:33:07.758Z,17.46
2022-10-24T10:42:43.552Z,17.44
2022-10-24T10:52:20.284Z,17.17
2022-10-24T11:01:58.574Z,17.25
2022-10-24T11:11:34.444Z,17.21
2022-10-24T11:21:12.762Z,17.3
2022-10-24T11:30:53.334Z,17.28
2022-10-24T11:40:31.319Z,17.4
2022-10-24T11:50:11.050Z,17.83
2022-10-24T11:59:48.914Z,17.88
2022-10-24T12:09:29.590Z,17.98
2022-10-24T12:19:05.212Z,17.66
2022-10-24T12:28:40.368Z,17.67
2022-10-24T12:38:16.670Z,17.55
2022-10-24T12:47:53.605Z,17.59
2022-10-24T12:57:30.672Z,17.46
2022-10-24T13:07:10.333Z,17.44
2022-10-24T13:16:46.821Z,17.38
2022-10-24T13:26:27.597Z,17.53
2022-10-24T13:36:03.889Z,17.42
2022-10-24T13:45:48.954Z,17.69
2022-10-24T13:55:25.863Z,17.76
2022-10-24T14:05:03.277Z,17.67
2022-10-24T14:14:37.795Z,17.43
2022-10-24T14:24:19.219Z,17.72
2022-10-24T14:33:57.769Z,17.91
2022-10-24T14:43:35.710Z,18.53
2022-10-24T14:53:15.719Z,18.52
2022-10-24T15:02:50.157Z,17.91
2022-10-24T15:12:23.408Z,17.75
2022-10-24T15:21:58.825Z,17.25
2022-10-24T15:31:36.372Z,16.78
2022-10-24T15:41:10.771Z,16.45
2022-10-24T15:50:46.621Z,16.07
2022-10-24T16:00:22.683Z,15.58
2022-10-24T16:10:00.026Z,15.33
2022-10-24T16:19:35.627Z,14.84
2022-10-24T16:29:12.285Z,14.75
2022-10-24T16:38:49.426Z,14.68
2022-10-24T16:48:26.788Z,14.91
2022-10-24T16:58:03.635Z,14.89
2022-10-24T17:07:41.086Z,14.85
2022-10-24T17:17:18.491Z,14.84
2022-10-24T17:26:55.116Z,14.72
2022-10-24T17:36:32.268Z,14.79
2022-10-24T17:46:09.573Z,14.79
2022-10-24T17:55:49.533Z,14.37
2022-10-24T18:05:23.963Z,14.27
2022-10-24T18:15:00.838Z,14.29
2022-10-24T18:24:37.625Z,14.13
2022-10-24T18:34:14.481Z,13.57
2022-10-24T18:43:52.781Z,13.21
2022-10-24T18:53:29.608Z,13.1
2022-10-24T19:03:06.306Z,13.16
2022-10-24T19:12:43.823Z,13.07
2022-10-24T19:22:25.759Z,13.14
2022-10-24T19:31:59.626Z,13.39
2022-10-24T19:41:36.844Z,13.43
2022-10-24T19:51:16.268Z,13.33
2022-10-24T20:00:53.421Z,13.17
2022-10-24T20:10:29.699Z,12.77
2022-10-24T20:20:05.308Z,12.49
2022-10-24T20:29:44.273Z,12.56
2022-10-24T20:39:23.282Z,12.55
2022-10-24T20:48:58.052Z,12.45
2022-10-24T20:58:34.891Z,12.32
2022-10-24T21:08:14.603Z,12.93
2022-10-24T21:17:50.390Z,12.73
2022-10-24T21:27:29.996Z,12.37
2022-10-24T21:37:05.672Z,11.91
2022-10-24T21:46:42.625Z,12.22
2022-10-24T21:56:21.471Z,12.4
2022-10-24T22:05:57.806Z,12.64
2022-10-24T22:15:34.361Z,12.64
2022-10-24T22:25:13.344Z,12.54
2022-10-24T22:34:51.000Z,12.47
2022-10-24T22:44:26.781Z,12.7
2022-10-24T22:54:06.154Z,12.31
2022-10-24T23:03:43.707Z,12.51
2022-10-24T23:13:19.479Z,12.53
2022-10-24T23:23:02.959Z,12.4
2022-10-24T23:32:34.037Z,12.33
2022-10-24T23:42:10.842Z,12.22
2022-10-24T23:51:47.994Z,12.2
